sensor_id;sensor_type;location;lat;lon;timestamp;temperature;humidity
55151;DHT22;41041;43.162;20.538;2024-02-23T00:02:20;153.60;2252.80
55151;DHT22;41041;43.162;20.538;2024-02-23T00:04:46;128.80;2252.80
55151;DHT22;41041;43.162;20.538;2024-02-23T00:07:12;128.80;2252.80
55151;DHT22;41041;43.162;20.538;2024-02-23T00:09:37;128.70;2252.80
55151;DHT22;41041;43.162;20.538;2024-02-23T00:12:04;128.80;2252.80
55151;DHT22;41041;43.162;20.538;2024-02-23T00:14:30;128.90;2252.80
55151;DHT22;41041;43.162;20.538;2024-02-23T00:17:02;128.80;2252.80
55151;DHT22;41041;43.162;20.538;2024-02-23T00:19:30;128.80;2252.80
55151;DHT22;41041;43.162;20.538;2024-02-23T00:21:56;128.80;2252.80
55151;DHT22;41041;43.162;20.538;2024-02-23T00:24:27;128.80;2252.80
55151;DHT22;41041;43.162;20.538;2024-02-23T00:26:53;128.90;2252.80
55151;DHT22;41041;43.162;20.538;2024-02-23T00:29:19;128.90;2252.80
55151;DHT22;41041;43.162;20.538;2024-02-23T00:31:47;128.80;2252.80
55151;DHT22;41041;43.162;20.538;2024-02-23T00:34:13;128.80;2252.80
55151;DHT22;41041;43.162;20.538;2024-02-23T00:36:40;128.80;2252.80
55151;DHT22;41041;43.162;20.538;2024-02-23T00:39:07;128.80;2252.80
55151;DHT22;41041;43.162;20.538;2024-02-23T00:41:34;128.80;2252.80
55151;DHT22;41041;43.162;20.538;2024-02-23T00:44:00;128.70;2252.80
55151;DHT22;41041;43.162;20.538;2024-02-23T00:46:26;128.60;2252.80
55151;DHT22;41041;43.162;20.538;2024-02-23T00:55:30;128.50;2252.80
55151;DHT22;41041;43.162;20.538;2024-02-23T00:57:55;128.50;2252.80
55151;DHT22;41041;43.162;20.538;2024-02-23T01:00:21;128.50;2252.80
55151;DHT22;41041;43.162;20.538;2024-02-23T01:02:47;128.40;2252.80
55151;DHT22;41041;43.162;20.538;2024-02-23T01:08:35;128.40;2252.80
55151;DHT22;41041;43.162;20.538;2024-02-23T01:11:01;128.40;2252.80
55151;DHT22;41041;43.162;20.538;2024-02-23T01:13:27;128.30;2252.80
55151;DHT22;41041;43.162;20.538;2024-02-23T01:16:25;128.20;2252.80
55151;DHT22;41041;43.162;20.538;2024-02-23T01:18:51;128.20;2252.80
55151;DHT22;41041;43.162;20.538;2024-02-23T01:21:17;128.10;2252.80
55151;DHT22;41041;43.162;20.538;2024-02-23T01:26:56;128.20;2252.80
55151;DHT22;41041;43.162;20.538;2024-02-23T01:29:23;128.30;2252.80
55151;DHT22;41041;43.162;20.538;2024-02-23T01:31:49;128.20;2252.80
55151;DHT22;41041;43.162;20.538;2024-02-23T01:34:15;128.20;2252.80
55151;DHT22;41041;43.162;20.538;2024-02-23T01:36:41;128.20;2252.80
55151;DHT22;41041;43.162;20.538;2024-02-23T01:39:06;128.20;2252.80
55151;DHT22;41041;43.162;20.538;2024-02-23T01:41:33;128.30;2252.80
55151;DHT22;41041;43.162;20.538;2024-02-23T01:43:59;128.20;2252.80
55151;DHT22;41041;43.162;20.538;2024-02-23T01:46:25;128.30;2252.80
55151;DHT22;41041;43.162;20.538;2024-02-23T01:48:51;128.30;2252.80
55151;DHT22;41041;43.162;20.538;2024-02-23T01:51:17;128.30;2252.80
55151;DHT22;41041;43.162;20.538;2024-02-23T01:53:43;128.30;2252.80
55151;DHT22;41041;43.162;20.538;2024-02-23T01:56:09;128.30;2252.80
55151;DHT22;41041;43.162;20.538;2024-02-23T01:58:37;128.30;2252.80
55151;DHT22;41041;43.162;20.538;2024-02-23T02:01:03;128.30;2252.80
55151;DHT22;41041;43.162;20.538;2024-02-23T02:03:29;128.20;2252.80
55151;DHT22;41041;43.162;20.538;2024-02-23T02:05:56;128.20;2252.80
55151;DHT22;41041;43.162;20.538;2024-02-23T02:11:49;128.30;2252.80
55151;DHT22;41041;43.162;20.538;2024-02-23T02:14:16;128.30;2252.80
55151;DHT22;41041;43.162;20.538;2024-02-23T02:16:42;128.30;2252.80
55151;DHT22;41041;43.162;20.538;2024-02-23T02:19:12;128.30;2252.80
55151;DHT22;41041;43.162;20.538;2024-02-23T02:21:39;128.30;2252.80
55151;DHT22;41041;43.162;20.538;2024-02-23T02:24:05;128.30;2252.80
55151;DHT22;41041;43.162;20.538;2024-02-23T02:26:31;128.30;2252.80
55151;DHT22;41041;43.162;20.538;2024-02-23T02:28:57;128.30;2252.80
55151;DHT22;41041;43.162;20.538;2024-02-23T02:31:23;128.30;2252.80
55151;DHT22;41041;43.162;20.538;2024-02-23T02:33:49;128.30;2252.80
55151;DHT22;41041;43.162;20.538;2024-02-23T02:36:15;128.30;2252.80
55151;DHT22;41041;43.162;20.538;2024-02-23T02:38:40;128.30;2252.80
55151;DHT22;41041;43.162;20.538;2024-02-23T02:41:06;128.30;2252.80
55151;DHT22;41041;43.162;20.538;2024-02-23T02:46:54;128.20;2252.80
55151;DHT22;41041;43.162;20.538;2024-02-23T02:49:20;128.30;2252.80
55151;DHT22;41041;43.162;20.538;2024-02-23T02:51:45;128.30;2252.80
55151;DHT22;41041;43.162;20.538;2024-02-23T02:54:11;128.30;2252.80
55151;DHT22;41041;43.162;20.538;2024-02-23T02:56:45;128.30;2252.80
55151;DHT22;41041;43.162;20.538;2024-02-23T02:59:16;128.30;2252.80
55151;DHT22;41041;43.162;20.538;2024-02-23T03:01:43;128.30;2252.80
55151;DHT22;41041;43.162;20.538;2024-02-23T03:04:09;128.30;2252.80
55151;DHT22;41041;43.162;20.538;2024-02-23T03:06:35;128.40;2252.80
55151;DHT22;41041;43.162;20.538;2024-02-23T03:09:01;128.30;2252.80
55151;DHT22;41041;43.162;20.538;2024-02-23T03:11:28;128.30;2252.80
55151;DHT22;41041;43.162;20.538;2024-02-23T03:13:54;128.30;2252.80
55151;DHT22;41041;43.162;20.538;2024-02-23T03:16:21;128.20;2252.80
55151;DHT22;41041;43.162;20.538;2024-02-23T03:18:51;128.20;2252.80
55151;DHT22;41041;43.162;20.538;2024-02-23T03:24:40;128.20;2252.80
55151;DHT22;41041;43.162;20.538;2024-02-23T03:27:06;128.20;2252.80
55151;DHT22;41041;43.162;20.538;2024-02-23T03:32:54;128.20;2252.80
55151;DHT22;41041;43.162;20.538;2024-02-23T03:35:20;128.10;2252.80
55151;DHT22;41041;43.162;20.538;2024-02-23T03:37:45;128.10;2252.80
55151;DHT22;41041;43.162;20.538;2024-02-23T03:40:11;128.00;2252.80
55151;DHT22;41041;43.162;20.538;2024-02-23T03:42:38;128.00;2252.80
55151;DHT22;41041;43.162;20.538;2024-02-23T03:45:04;128.00;2252.80
55151;DHT22;41041;43.162;20.538;2024-02-23T03:47:30;128.00;2252.80
55151;DHT22;41041;43.162;20.538;2024-02-23T03:49:56;128.00;2252.80
55151;DHT22;41041;43.162;20.538;2024-02-23T03:52:22;103.30;2227.20
55151;DHT22;41041;43.162;20.538;2024-02-23T03:54:48;103.20;2227.20
55151;DHT22;41041;43.162;20.538;2024-02-23T03:57:14;103.30;2227.20
55151;DHT22;41041;43.162;20.538;2024-02-23T03:59:54;103.20;2227.20
55151;DHT22;41041;43.162;20.538;2024-02-23T04:02:21;103.20;2227.20
55151;DHT22;41041;43.162;20.538;2024-02-23T04:04:48;103.20;2227.20
55151;DHT22;41041;43.162;20.538;2024-02-23T04:07:14;128.00;2252.80
55151;DHT22;41041;43.162;20.538;2024-02-23T04:09:40;103.30;2227.20
55151;DHT22;41041;43.162;20.538;2024-02-23T04:12:06;128.10;2252.80
55151;DHT22;41041;43.162;20.538;2024-02-23T04:14:35;128.00;2252.80
55151;DHT22;41041;43.162;20.538;2024-02-23T04:17:04;128.00;2252.80
55151;DHT22;41041;43.162;20.538;2024-02-23T04:19:30;128.00;2252.80
55151;DHT22;41041;43.162;20.538;2024-02-23T04:21:56;128.00;2252.80
55151;DHT22;41041;43.162;20.538;2024-02-23T04:24:22;128.00;2252.80
55151;DHT22;41041;43.162;20.538;2024-02-23T04:26:48;128.00;2252.80
55151;DHT22;41041;43.162;20.538;2024-02-23T04:29:14;103.30;2227.20
55151;DHT22;41041;43.162;20.538;2024-02-23T04:31:40;103.30;2227.20
55151;DHT22;41041;43.162;20.538;2024-02-23T04:34:05;103.30;2227.20
55151;DHT22;41041;43.162;20.538;2024-02-23T04:36:31;128.10;2252.80
55151;DHT22;41041;43.162;20.538;2024-02-23T04:44:37;128.00;2252.80
55151;DHT22;41041;43.162;20.538;2024-02-23T04:47:02;103.00;2227.20
55151;DHT22;41041;43.162;20.538;2024-02-23T04:49:28;103.10;2227.20
55151;DHT22;41041;43.162;20.538;2024-02-23T04:51:54;103.20;2227.20
55151;DHT22;41041;43.162;20.538;2024-02-23T04:54:20;128.10;2252.80
55151;DHT22;41041;43.162;20.538;2024-02-23T04:56:47;128.60;2252.80
55151;DHT22;41041;43.162;20.538;2024-02-23T04:59:13;128.60;2252.80
55151;DHT22;41041;43.162;20.538;2024-02-23T05:01:39;128.50;2252.80
55151;DHT22;41041;43.162;20.538;2024-02-23T05:04:05;128.70;2252.80
55151;DHT22;41041;43.162;20.538;2024-02-23T05:18:42;154.00;2252.80
55151;DHT22;41041;43.162;20.538;2024-02-23T05:21:10;153.70;2252.80
55151;DHT22;41041;43.162;20.538;2024-02-23T05:23:36;153.60;2252.80
55151;DHT22;41041;43.162;20.538;2024-02-23T09:54:50;308.00;2304.00
55151;DHT22;41041;43.162;20.538;2024-02-23T09:57:17;307.90;2304.00
55151;DHT22;41041;43.162;20.538;2024-02-23T10:46:01;333.00;2329.60
55151;DHT22;41041;43.162;20.538;2024-02-23T21:03:07;281.90;2278.40
